1898 NOT_NAMED (1898178N16116)


IBTrACS version v04r00. Visit IBTrACS website for data access.
Please direct all questions to the IBTrACS Q and A forum

Storm track - Intensity - Wind Radii - Intensity Data - Source Data - All data

Summary Information

Storm ID 1898178N16116
Start Jun 26 16Z
Landfall Jun 30 21Z
End Jul 2 04Z
ATCF IDs
Track status Best track data.

Storm track plot

Map of storm track

Intensity plots

No Intensity information for this storm


Radial wind information

No radial wind information for this storm


Position and Intensity Table

BASIN ISO_TIME_________ NATURE LAT LON
degrees north degrees east
WP 1898-06-26 16:00:00 NR 15.60 115.70
WP 18:00:00 NR 15.77 115.67
WP 21:00:00 NR 16.02 115.62
WP 1898-06-27 00:00:00 NR 16.25 115.57
WP 03:00:00 NR 16.45 115.52
WP 04:00:00 NR 16.50 115.50
WP 06:00:00 NR 16.59 115.47
WP 09:00:00 NR 16.70 115.42
WP 12:00:00 NR 16.79 115.37
WP 15:00:00 NR 16.87 115.32
WP 16:00:00 NR 16.90 115.30
WP 18:00:00 NR 16.97 115.27
WP 21:00:00 NR 17.09 115.22
WP 1898-06-28 00:00:00 NR 17.22 115.17
WP 03:00:00 NR 17.35 115.12
WP 04:00:00 NR 17.40 115.10
WP 06:00:00 NR 17.49 115.05
WP 09:00:00 NR 17.64 114.98
WP 12:00:00 NR 17.79 114.90
WP 15:00:00 NR 17.95 114.82
WP 16:00:00 NR 18.00 114.80
WP 18:00:00 NR 18.09 114.76
WP 21:00:00 NR 18.23 114.71
WP 1898-06-29 00:00:00 NR 18.38 114.66
WP 03:00:00 NR 18.54 114.62
WP 04:00:00 NR 18.60 114.60
WP 06:00:00 NR 18.73 114.58
WP 09:00:00 NR 18.95 114.56
WP 12:00:00 NR 19.18 114.51
WP 15:00:00 NR 19.42 114.44
WP 16:00:00 NR 19.50 114.40
WP 18:00:00 NR 19.65 114.30
WP 21:00:00 NR 19.87 114.12
WP 1898-06-30 00:00:00 NR 20.09 113.91
WP 03:00:00 NR 20.32 113.68
WP 04:00:00 NR 20.40 113.60
WP 06:00:00 NR 20.56 113.46
WP 09:00:00 NR 20.81 113.25
WP 12:00:00 NR 21.06 113.03
WP 15:00:00 NR 21.32 112.79
WP 16:00:00 NR 21.40 112.70
WP 18:00:00 NR 21.57 112.54
WP 21:00:00 NR 21.82 112.28
WP 1898-07-01 00:00:00 NR 22.07 111.99
WP 03:00:00 NR 22.32 111.63
WP 04:00:00 NR 22.40 111.50
WP 06:00:00 NR 22.57 111.21
WP 09:00:00 NR 22.84 110.72
WP 12:00:00 NR 23.09 110.17
WP 15:00:00 NR 23.33 109.60
WP 16:00:00 NR 23.40 109.40
WP 18:00:00 NR 23.54 109.01
WP 21:00:00 NR 23.72 108.41
WP 1898-07-02 00:00:00 NR 23.89 107.81
WP 03:00:00 NR 24.05 107.20
WP 04:00:00 NR 24.10 107.00

Source Information

Agency Information
USA
TOKYO
CMA
HKO
NEWDELHI
REUNION
BOM
NADI
WELLINGTON
DS824
TD9636 cons_worldwide_trop_cyclone_18710101-19891231-003:Line=1783
TD9635
NEUMANN
MLC

All available IBTrACS Data

SEASON BASIN SUBBASIN ISO_TIME_________ NATURE LAT LON DIST2LAND LANDFALL IFLAG USA SSHS TD9636 LAT TD9636 LON TD9636 STAGE STORM SPEED STORM DIR
Year degrees north degrees east km km 1 degrees north degrees east kts degrees
1898 WP MM 1898-06-26 16:00:00 NR 15.60 115.70 430 428 __________O___ -1 15.60 115.70 7 5 347
1898 WP MM 18:00:00 NR 15.77 115.67 428 427 __________P___ -1 15.77 115.67 7 5 350
1898 WP MM 21:00:00 NR 16.02 115.62 438 438 __________P___ -1 16.02 115.62 7 5 348
1898 WP MM 1898-06-27 00:00:00 NR 16.25 115.57 439 439 __________P___ -1 16.25 115.57 7 4 347
1898 WP MM 03:00:00 NR 16.45 115.52 450 451 __________P___ -1 16.45 115.52 7 4 345
1898 WP MM 04:00:00 NR 16.50 115.50 451 451 __________O___ -1 16.50 115.50 3 3 344
1898 WP MM 06:00:00 NR 16.59 115.47 453 453 __________P___ -1 16.59 115.47 3 3 337
1898 WP MM 09:00:00 NR 16.70 115.42 465 465 __________P___ -1 16.70 115.42 3 2 333
1898 WP MM 12:00:00 NR 16.79 115.37 467 467 __________P___ -1 16.79 115.37 3 2 331
1898 WP MM 15:00:00 NR 16.87 115.32 480 480 __________P___ -1 16.87 115.32 3 2 330
1898 WP MM 16:00:00 NR 16.90 115.30 480 480 __________O___ -1 16.90 115.30 4 2 341
1898 WP MM 18:00:00 NR 16.97 115.27 482 482 __________P___ -1 16.97 115.27 4 3 340
1898 WP MM 21:00:00 NR 17.09 115.22 495 495 __________P___ -1 17.09 115.22 4 3 341
1898 WP MM 1898-06-28 00:00:00 NR 17.22 115.17 498 497 __________P___ -1 17.22 115.17 4 3 340
1898 WP MM 03:00:00 NR 17.35 115.12 497 497 __________P___ -1 17.35 115.12 4 3 338
1898 WP MM 04:00:00 NR 17.40 115.10 497 491 __________O___ -1 17.40 115.10 4 3 333
1898 WP MM 06:00:00 NR 17.49 115.05 491 477 __________P___ -1 17.49 115.05 4 3 334
1898 WP MM 09:00:00 NR 17.64 114.98 477 457 __________P___ -1 17.64 114.98 4 3 333
1898 WP MM 12:00:00 NR 17.79 114.90 457 443 __________P___ -1 17.79 114.90 4 3 334
1898 WP MM 15:00:00 NR 17.95 114.82 443 438 __________P___ -1 17.95 114.82 4 3 335
1898 WP MM 16:00:00 NR 18.00 114.80 438 433 __________O___ -1 18.00 114.80 4 3 339
1898 WP MM 18:00:00 NR 18.09 114.76 433 419 __________P___ -1 18.09 114.76 4 3 339
1898 WP MM 21:00:00 NR 18.23 114.71 419 411 __________P___ -1 18.23 114.71 4 3 341
1898 WP MM 1898-06-29 00:00:00 NR 18.38 114.66 411 397 __________P___ -1 18.38 114.66 4 3 345
1898 WP MM 03:00:00 NR 18.54 114.62 397 394 __________P___ -1 18.54 114.62 4 3 346
1898 WP MM 04:00:00 NR 18.60 114.60 394 391 __________O___ -1 18.60 114.60 4 4 347
1898 WP MM 06:00:00 NR 18.73 114.58 391 364 __________P___ -1 18.73 114.58 4 4 353
1898 WP MM 09:00:00 NR 18.95 114.56 364 339 __________P___ -1 18.95 114.56 4 5 351
1898 WP MM 12:00:00 NR 19.18 114.51 339 315 __________P___ -1 19.18 114.51 4 5 347
1898 WP MM 15:00:00 NR 19.42 114.44 315 305 __________P___ -1 19.42 114.44 4 5 342
1898 WP MM 16:00:00 NR 19.50 114.40 305 290 __________O___ -1 19.50 114.40 4 5 331
1898 WP MM 18:00:00 NR 19.65 114.30 290 251 __________P___ -1 19.65 114.30 4 5 324
1898 WP MM 21:00:00 NR 19.87 114.12 251 221 __________P___ -1 19.87 114.12 4 6 320
1898 WP MM 1898-06-30 00:00:00 NR 20.09 113.91 221 193 __________P___ -1 20.09 113.91 4 6 317
1898 WP MM 03:00:00 NR 20.32 113.68 193 178 __________P___ -1 20.32 113.68 4 6 317
1898 WP MM 04:00:00 NR 20.40 113.60 178 154 __________O___ -1 20.40 113.60 4 6 320
1898 WP MM 06:00:00 NR 20.56 113.46 154 126 __________P___ -1 20.56 113.46 4 6 321
1898 WP MM 09:00:00 NR 20.81 113.25 126 88 __________P___ -1 20.81 113.25 4 6 321
1898 WP MM 12:00:00 NR 21.06 113.03 88 59 __________P___ -1 21.06 113.03 4 7 319
1898 WP MM 15:00:00 NR 21.32 112.79 59 45 __________P___ -1 21.32 112.79 4 7 318
1898 WP MM 16:00:00 NR 21.40 112.70 45 22 __________O___ -1 21.40 112.70 4 7 318
1898 WP MM 18:00:00 NR 21.57 112.54 22 0 __________P___ -1 21.57 112.54 4 7 317
1898 WP MM 21:00:00 NR 21.82 112.28 0 0 __________P___ -1 21.82 112.28 4 7 314
1898 WP MM 1898-07-01 00:00:00 NR 22.07 111.99 0 0 __________P___ -1 22.07 111.99 4 8 310
1898 WP MM 03:00:00 NR 22.32 111.63 0 0 __________P___ -1 22.32 111.63 4 8 307
1898 WP MM 04:00:00 NR 22.40 111.50 0 0 __________O___ -1 22.40 111.50 4 9 303
1898 WP MM 06:00:00 NR 22.57 111.21 0 0 __________P___ -1 22.57 111.21 4 10 301
1898 WP MM 09:00:00 NR 22.84 110.72 0 0 __________P___ -1 22.84 110.72 4 11 298
1898 WP MM 12:00:00 NR 23.09 110.17 0 0 __________P___ -1 23.09 110.17 4 11 295
1898 WP MM 15:00:00 NR 23.33 109.60 0 0 __________P___ -1 23.33 109.60 4 12 294
1898 WP MM 16:00:00 NR 23.40 109.40 0 0 __________O___ -1 23.40 109.40 7 12 291
1898 WP MM 18:00:00 NR 23.54 109.01 0 0 __________P___ -1 23.54 109.01 7 12 290
1898 WP MM 21:00:00 NR 23.72 108.41 0 0 __________P___ -1 23.72 108.41 7 12 288
1898 WP MM 1898-07-02 00:00:00 NR 23.89 107.81 0 0 __________P___ -1 23.89 107.81 7 12 286
1898 WP MM 03:00:00 NR 24.05 107.20 0 0 __________P___ -1 24.05 107.20 7 11 286
1898 WP MM 04:00:00 NR 24.10 107.00 0 __________O___ -1 24.10 107.00 7 11 285